createdAt,value
2022-12-18T00:00:02.891Z,43.19
2022-12-18T00:01:02.843Z,43.19
2022-12-18T00:02:02.915Z,43.30
2022-12-18T00:03:02.879Z,43.19
2022-12-18T00:04:02.901Z,43.19
2022-12-18T00:05:02.718Z,43.30
2022-12-18T00:06:02.683Z,43.19
2022-12-18T00:07:02.642Z,43.19
2022-12-18T00:08:02.639Z,43.30
2022-12-18T00:09:02.584Z,43.30
2022-12-18T00:10:02.537Z,43.19
2022-12-18T00:11:02.507Z,43.30
2022-12-18T00:13:05.227Z,43.19
2022-12-18T00:14:02.450Z,43.19
2022-12-18T00:15:02.387Z,43.10
2022-12-18T00:16:02.426Z,43.19
2022-12-18T00:17:02.311Z,43.19
2022-12-18T00:18:02.267Z,43.19
2022-12-18T00:19:02.240Z,43.10
2022-12-18T00:20:02.251Z,43.10
2022-12-18T00:21:02.175Z,43.19
2022-12-18T00:22:02.148Z,43.10
2022-12-18T00:23:02.099Z,43.19
2022-12-18T00:24:02.074Z,43.19
2022-12-18T00:25:02.023Z,43.10
2022-12-18T00:26:02.011Z,43.10
2022-12-18T00:27:01.956Z,43.10
2022-12-18T00:28:01.924Z,43.10
2022-12-18T00:29:01.885Z,43.10
2022-12-18T00:30:01.844Z,43.10
2022-12-18T00:31:01.823Z,43.19
2022-12-18T00:32:01.862Z,43.10
2022-12-18T00:33:01.751Z,43.19
2022-12-18T00:34:01.715Z,43.10
2022-12-18T00:35:01.675Z,43.10
2022-12-18T00:36:01.645Z,43.19
2022-12-18T00:37:01.608Z,43.10
2022-12-18T00:38:01.635Z,43.10
2022-12-18T00:39:01.543Z,43.19
2022-12-18T00:40:01.505Z,43.10
2022-12-18T00:41:01.476Z,43.10
2022-12-18T00:42:01.424Z,43.10
2022-12-18T00:43:01.400Z,43.10
2022-12-18T00:44:01.400Z,43.10
2022-12-18T00:45:01.332Z,43.10
2022-12-18T00:46:01.332Z,43.10
2022-12-18T00:47:01.272Z,43.10
2022-12-18T00:48:01.229Z,43.10
2022-12-18T00:49:01.192Z,43.19
2022-12-18T00:50:01.196Z,43.19
2022-12-18T00:51:01.113Z,43.19
2022-12-18T00:52:01.095Z,43.19
2022-12-18T00:53:01.061Z,43.10
2022-12-18T00:54:01.002Z,42.99
2022-12-18T00:55:06.018Z,42.99
2022-12-18T00:56:00.958Z,43.10
2022-12-18T00:57:00.892Z,43.19
2022-12-18T00:58:00.860Z,43.10
2022-12-18T00:59:00.808Z,43.19
2022-12-18T01:00:00.789Z,43.10
2022-12-18T01:01:00.838Z,43.10
2022-12-18T01:02:00.951Z,43.10
2022-12-18T01:03:00.789Z,43.10
2022-12-18T01:04:00.628Z,43.10
2022-12-18T01:05:00.594Z,43.10
2022-12-18T01:06:00.582Z,42.99
2022-12-18T01:07:00.533Z,43.10
2022-12-18T01:08:00.521Z,43.10
2022-12-18T01:09:00.465Z,43.10
2022-12-18T01:10:00.426Z,42.99
2022-12-18T01:11:00.390Z,43.10
2022-12-18T01:12:00.345Z,42.99
2022-12-18T01:13:00.310Z,42.99
2022-12-18T01:14:00.301Z,42.99
2022-12-18T01:15:00.233Z,42.99
2022-12-18T01:16:00.270Z,42.99
2022-12-18T01:17:00.162Z,42.99
2022-12-18T01:18:00.114Z,42.99
2022-12-18T01:19:00.089Z,42.99
2022-12-18T01:20:00.077Z,42.99
2022-12-18T01:21:00.001Z,42.90
2022-12-18T01:21:59.974Z,42.99
2022-12-18T01:22:59.934Z,42.90
2022-12-18T01:23:59.897Z,42.99
2022-12-18T01:24:59.857Z,42.99
2022-12-18T01:25:59.858Z,42.99
2022-12-18T01:26:59.782Z,43.10
2022-12-18T01:27:59.755Z,42.99
2022-12-18T01:28:59.726Z,42.99
2022-12-18T01:29:59.678Z,43.10
2022-12-18T01:30:59.631Z,42.99
2022-12-18T01:31:59.685Z,42.90
2022-12-18T01:32:59.562Z,42.90
2022-12-18T01:33:59.531Z,42.99
2022-12-18T01:34:59.490Z,42.90
2022-12-18T01:35:59.463Z,42.99
2022-12-18T01:36:59.422Z,42.99
2022-12-18T01:37:59.435Z,42.90
2022-12-18T01:38:59.358Z,42.99
2022-12-18T01:39:59.324Z,42.99
2022-12-18T01:40:59.274Z,42.90
2022-12-18T01:41:59.251Z,42.99
2022-12-18T01:42:59.236Z,42.99
2022-12-18T01:43:59.215Z,42.90
2022-12-18T01:44:59.167Z,42.90
2022-12-18T01:45:59.226Z,42.99
2022-12-18T01:46:59.091Z,42.90
2022-12-18T01:47:59.052Z,42.99
2022-12-18T01:48:59.023Z,42.90
2022-12-18T01:49:59.023Z,42.99
2022-12-18T01:50:58.955Z,42.80
2022-12-18T01:51:58.923Z,42.90
2022-12-18T01:52:58.895Z,42.80
2022-12-18T01:53:58.866Z,42.90
2022-12-18T01:54:58.835Z,42.80
2022-12-18T01:55:58.867Z,42.80
2022-12-18T01:56:58.772Z,42.90
2022-12-18T01:57:58.740Z,42.90
2022-12-18T01:58:58.703Z,42.90
2022-12-18T01:59:58.667Z,42.80
2022-12-18T02:00:58.713Z,42.80
2022-12-18T02:01:58.817Z,42.90
2022-12-18T02:02:58.693Z,42.99
2022-12-18T02:03:58.547Z,42.90
2022-12-18T02:04:58.508Z,42.80
2022-12-18T02:05:58.484Z,42.90
2022-12-18T02:06:58.440Z,42.80
2022-12-18T02:07:58.440Z,42.90
2022-12-18T02:08:58.364Z,42.90
2022-12-18T02:09:58.332Z,42.90
2022-12-18T02:10:58.295Z,42.90
2022-12-18T02:11:58.259Z,42.90
2022-12-18T02:12:58.226Z,42.99
2022-12-18T02:13:58.236Z,42.99
2022-12-18T02:14:58.177Z,42.90
2022-12-18T02:15:58.140Z,42.80
2022-12-18T02:16:58.190Z,42.90
2022-12-18T02:17:58.056Z,43.10
2022-12-18T02:18:58.028Z,42.90
2022-12-18T02:19:58.022Z,42.90
2022-12-18T02:20:57.956Z,42.90
2022-12-18T02:21:57.916Z,42.90
2022-12-18T02:22:57.880Z,42.99
2022-12-18T02:23:57.853Z,42.99
2022-12-18T02:24:57.833Z,42.90
2022-12-18T02:25:57.826Z,42.90
2022-12-18T02:26:57.744Z,42.99
2022-12-18T02:27:57.720Z,42.90
2022-12-18T02:28:57.686Z,42.90
2022-12-18T02:29:58.802Z,42.90
2022-12-18T02:30:57.673Z,42.90
2022-12-18T02:31:57.620Z,42.99
2022-12-18T02:32:57.561Z,42.90
2022-12-18T02:33:57.517Z,42.80
2022-12-18T02:34:57.539Z,42.80
2022-12-18T02:35:57.470Z,42.90
2022-12-18T02:36:57.417Z,42.80
2022-12-18T02:37:57.393Z,42.90
2022-12-18T02:38:57.333Z,42.80
2022-12-18T02:39:57.308Z,42.80
2022-12-18T02:40:57.281Z,42.80
2022-12-18T02:41:57.241Z,42.90
2022-12-18T02:42:57.228Z,42.90
2022-12-18T02:43:57.188Z,42.90
2022-12-18T02:44:57.138Z,42.80
2022-12-18T02:45:57.191Z,42.69
2022-12-18T02:46:57.071Z,42.80
2022-12-18T02:47:57.039Z,42.90
2022-12-18T02:48:57.003Z,42.90
2022-12-18T02:49:56.990Z,42.80
2022-12-18T02:50:56.937Z,42.90
2022-12-18T02:51:56.907Z,42.80
2022-12-18T02:52:56.861Z,42.80
2022-12-18T02:53:56.831Z,42.80
2022-12-18T02:54:56.798Z,42.90
2022-12-18T02:55:56.817Z,42.69
2022-12-18T02:56:56.734Z,42.80
2022-12-18T02:57:56.690Z,42.80
2022-12-18T02:58:56.662Z,42.90
2022-12-18T02:59:56.641Z,42.80
2022-12-18T03:00:56.632Z,42.90
2022-12-18T03:01:56.791Z,42.90
2022-12-18T03:02:56.657Z,42.90
2022-12-18T03:03:56.506Z,42.80
2022-12-18T03:04:56.482Z,42.80
2022-12-18T03:05:56.447Z,42.90
2022-12-18T03:06:56.426Z,42.90
2022-12-18T03:07:56.426Z,42.90
2022-12-18T03:08:56.366Z,42.90
2022-12-18T03:09:56.334Z,42.80
2022-12-18T03:10:56.315Z,42.90
2022-12-18T03:11:56.287Z,42.90
2022-12-18T03:12:56.247Z,42.90
2022-12-18T03:13:56.255Z,42.80
2022-12-18T03:14:56.195Z,42.99
2022-12-18T03:15:56.166Z,42.80
2022-12-18T03:16:56.193Z,42.90
2022-12-18T03:17:56.119Z,42.90
2022-12-18T03:18:56.084Z,42.80
2022-12-18T03:19:56.091Z,42.90
2022-12-18T03:20:56.023Z,42.99
2022-12-18T03:21:56.004Z,42.90
2022-12-18T03:22:55.977Z,42.90
2022-12-18T03:23:55.936Z,42.80
2022-12-18T03:24:55.912Z,42.80
2022-12-18T03:25:55.904Z,42.90
2022-12-18T03:26:55.848Z,42.80
2022-12-18T03:27:55.827Z,42.90
2022-12-18T03:28:55.799Z,42.90
2022-12-18T03:29:55.773Z,42.80
2022-12-18T03:30:55.827Z,42.90
2022-12-18T03:31:55.756Z,42.90
2022-12-18T03:33:00.107Z,42.90
2022-12-18T03:33:55.694Z,42.90
2022-12-18T03:34:55.627Z,42.90
2022-12-18T03:35:55.603Z,42.90
2022-12-18T03:36:55.579Z,42.90
2022-12-18T03:37:55.592Z,42.99
2022-12-18T03:38:55.509Z,42.99
2022-12-18T03:39:55.484Z,42.90
2022-12-18T03:40:55.460Z,42.80
2022-12-18T03:41:55.448Z,42.90
2022-12-18T03:42:55.392Z,42.90
2022-12-18T03:43:55.408Z,42.90
2022-12-18T03:44:55.333Z,42.90
2022-12-18T03:45:55.425Z,42.99
2022-12-18T03:46:55.288Z,42.88
2022-12-18T03:47:55.244Z,42.97
2022-12-18T03:48:55.210Z,42.88
2022-12-18T03:49:55.201Z,42.88
2022-12-18T03:50:55.140Z,42.88
2022-12-18T03:51:55.105Z,42.88
2022-12-18T03:52:55.064Z,43.08
2022-12-18T03:53:55.040Z,42.88
2022-12-18T03:54:55.009Z,42.97
2022-12-18T03:55:55.123Z,42.88
2022-12-18T03:56:54.937Z,42.88
2022-12-18T03:57:54.914Z,42.97
2022-12-18T03:58:54.865Z,42.88
2022-12-18T03:59:54.841Z,42.97
2022-12-18T04:00:54.801Z,42.97
2022-12-18T04:01:54.898Z,42.88
2022-12-18T04:02:54.730Z,42.77
2022-12-18T04:03:54.752Z,42.97
2022-12-18T04:04:54.692Z,42.97
2022-12-18T04:05:54.625Z,42.97
2022-12-18T04:06:54.610Z,42.97
2022-12-18T04:07:54.618Z,42.88
2022-12-18T04:08:54.549Z,43.08
2022-12-18T04:09:54.520Z,42.88
2022-12-18T04:10:54.482Z,42.97
2022-12-18T04:11:54.457Z,42.97
2022-12-18T04:12:54.417Z,42.97
2022-12-18T04:13:54.426Z,42.97
2022-12-18T04:14:54.362Z,42.97
2022-12-18T04:15:54.418Z,43.08
2022-12-18T04:16:54.298Z,43.08
2022-12-18T04:17:54.263Z,43.08
2022-12-18T04:18:54.234Z,43.08
2022-12-18T04:19:54.230Z,43.10
2022-12-18T04:20:54.171Z,43.10
2022-12-18T04:21:54.139Z,43.19
2022-12-18T04:22:54.110Z,43.10
2022-12-18T04:23:54.082Z,43.10
2022-12-18T04:24:54.051Z,43.10
2022-12-18T04:25:54.059Z,43.19
2022-12-18T04:26:53.996Z,43.19
2022-12-18T04:27:53.958Z,43.10
2022-12-18T04:28:53.927Z,43.10
2022-12-18T04:29:53.893Z,43.10
2022-12-18T04:30:53.925Z,43.19
2022-12-18T04:31:53.830Z,43.10
2022-12-18T04:32:53.778Z,43.19
2022-12-18T04:33:53.749Z,43.10
2022-12-18T04:34:53.715Z,43.10
2022-12-18T04:35:53.671Z,43.19
2022-12-18T04:36:53.640Z,43.19
2022-12-18T04:37:53.632Z,43.10
2022-12-18T04:38:53.565Z,43.10
2022-12-18T04:39:53.524Z,43.19
2022-12-18T04:40:53.489Z,43.19
2022-12-18T04:41:53.455Z,43.19
2022-12-18T04:42:53.504Z,43.18
2022-12-18T04:43:53.412Z,43.18
2022-12-18T04:44:53.343Z,43.27
2022-12-18T04:45:53.304Z,43.18
2022-12-18T04:46:53.295Z,43.08
2022-12-18T04:47:53.245Z,43.18
2022-12-18T04:48:53.204Z,43.18
2022-12-18T04:49:53.217Z,43.18
2022-12-18T04:50:53.143Z,43.08
2022-12-18T04:51:53.107Z,43.08
2022-12-18T04:52:53.076Z,43.08
2022-12-18T04:53:53.039Z,43.18
2022-12-18T04:54:53.003Z,43.08
2022-12-18T04:55:53.000Z,43.08
2022-12-18T04:56:52.935Z,43.08
2022-12-18T04:57:52.884Z,43.08
2022-12-18T04:58:52.856Z,43.08
2022-12-18T04:59:52.818Z,43.08
2022-12-18T05:00:52.789Z,43.08
2022-12-18T05:01:52.954Z,43.08
2022-12-18T05:02:52.999Z,43.08
2022-12-18T05:03:52.752Z,42.97
2022-12-18T05:04:52.652Z,43.08
2022-12-18T05:05:52.628Z,43.08
2022-12-18T05:06:52.604Z,43.08
2022-12-18T05:07:52.621Z,42.97
2022-12-18T05:08:52.536Z,43.08
2022-12-18T05:09:52.497Z,42.97
2022-12-18T05:10:52.476Z,42.97
2022-12-18T05:11:52.461Z,42.97
2022-12-18T05:12:52.409Z,42.97
2022-12-18T05:13:52.418Z,42.97
2022-12-18T05:14:52.350Z,42.97
2022-12-18T05:15:52.355Z,42.97
2022-12-18T05:16:55.719Z,42.97
2022-12-18T05:17:52.249Z,43.08
2022-12-18T05:18:52.213Z,43.08
2022-12-18T05:19:52.206Z,42.97
2022-12-18T05:20:52.141Z,42.97
2022-12-18T05:21:52.110Z,42.97
2022-12-18T05:22:52.066Z,42.97
2022-12-18T05:23:52.034Z,42.97
2022-12-18T05:24:51.999Z,43.08
2022-12-18T05:25:52.152Z,43.08
2022-12-18T05:26:51.921Z,43.08
2022-12-18T05:27:51.877Z,42.97
2022-12-18T05:28:51.846Z,43.08
2022-12-18T05:29:51.803Z,42.97
2022-12-18T05:30:51.805Z,42.97
2022-12-18T05:31:51.958Z,43.08
2022-12-18T05:32:51.711Z,43.08
2022-12-18T05:33:51.666Z,42.97
2022-12-18T05:34:51.634Z,43.08
2022-12-18T05:35:51.595Z,42.97
2022-12-18T05:36:51.565Z,43.08
2022-12-18T05:37:51.574Z,43.08
2022-12-18T05:38:51.497Z,43.18
2022-12-18T05:39:51.470Z,43.18
2022-12-18T05:40:51.446Z,42.97
2022-12-18T05:41:51.405Z,43.18
2022-12-18T05:42:51.376Z,43.08
2022-12-18T05:43:51.389Z,43.18
2022-12-18T05:44:51.306Z,43.08
2022-12-18T05:45:51.262Z,43.18
2022-12-18T05:46:51.274Z,43.08
2022-12-18T05:47:51.198Z,42.97
2022-12-18T05:48:51.194Z,43.08
2022-12-18T05:49:51.163Z,43.08
2022-12-18T05:50:51.114Z,43.18
2022-12-18T05:51:51.070Z,43.08
2022-12-18T05:52:51.038Z,42.88
2022-12-18T05:53:51.003Z,43.08
2022-12-18T05:54:50.967Z,42.97
2022-12-18T05:55:50.982Z,43.08
2022-12-18T05:56:50.925Z,42.97
2022-12-18T05:57:50.866Z,42.97
2022-12-18T05:58:50.837Z,42.97
2022-12-18T05:59:50.791Z,42.97
2022-12-18T06:00:50.759Z,42.97
2022-12-18T06:01:50.990Z,42.97
2022-12-18T06:02:50.838Z,42.97
2022-12-18T06:03:50.752Z,42.97
2022-12-18T06:04:50.623Z,42.88
2022-12-18T06:05:50.595Z,42.88
2022-12-18T06:06:50.563Z,42.88
2022-12-18T06:07:50.731Z,42.88
2022-12-18T06:08:50.499Z,42.88
2022-12-18T06:09:50.471Z,42.88
2022-12-18T06:10:50.447Z,42.88
2022-12-18T06:11:50.408Z,42.77
2022-12-18T06:12:50.372Z,42.88
2022-12-18T06:13:53.549Z,42.97
2022-12-18T06:14:50.320Z,42.88
2022-12-18T06:15:50.295Z,42.88
2022-12-18T06:16:50.244Z,42.88
2022-12-18T06:17:50.208Z,42.88
2022-12-18T06:18:50.168Z,42.77
2022-12-18T06:19:50.171Z,42.88
2022-12-18T06:20:50.112Z,42.88
2022-12-18T06:21:50.069Z,42.88
2022-12-18T06:22:50.039Z,42.88
2022-12-18T06:23:50.001Z,42.88
2022-12-18T06:24:49.964Z,42.88
2022-12-18T06:25:49.966Z,42.88
2022-12-18T06:26:49.896Z,42.97
2022-12-18T06:27:49.860Z,42.88
2022-12-18T06:28:49.824Z,42.97
2022-12-18T06:29:49.784Z,42.97
2022-12-18T06:30:49.756Z,42.88
2022-12-18T06:31:49.782Z,42.97
2022-12-18T06:32:54.633Z,42.97
2022-12-18T06:33:49.631Z,42.97
2022-12-18T06:34:49.604Z,42.97
2022-12-18T06:35:49.569Z,42.97
2022-12-18T06:36:49.528Z,42.97
2022-12-18T06:37:49.604Z,42.97
2022-12-18T06:38:49.469Z,42.97
2022-12-18T06:39:49.424Z,42.97
2022-12-18T06:40:49.408Z,42.88
2022-12-18T06:41:49.376Z,42.97
2022-12-18T06:42:49.333Z,42.97
2022-12-18T06:43:49.472Z,42.97
2022-12-18T06:44:49.269Z,42.97
2022-12-18T06:45:49.293Z,42.97
2022-12-18T06:46:49.207Z,42.97
2022-12-18T06:47:49.173Z,42.88
2022-12-18T06:48:49.136Z,42.88
2022-12-18T06:49:49.243Z,42.88
2022-12-18T06:50:49.066Z,42.97
2022-12-18T06:51:49.048Z,42.88
2022-12-18T06:52:48.994Z,42.97
2022-12-18T06:53:48.971Z,42.97
2022-12-18T06:54:48.929Z,42.88
2022-12-18T06:55:49.096Z,42.88
2022-12-18T06:56:48.861Z,42.97
2022-12-18T06:57:48.813Z,42.88
2022-12-18T06:58:48.782Z,42.88
2022-12-18T06:59:48.746Z,42.97
2022-12-18T07:00:48.781Z,42.88
2022-12-18T07:01:48.899Z,42.88
2022-12-18T07:02:48.776Z,42.88
2022-12-18T07:03:48.605Z,42.88
2022-12-18T07:04:48.567Z,42.97
2022-12-18T07:05:48.533Z,42.88
2022-12-18T07:06:48.497Z,42.88
2022-12-18T07:07:48.498Z,42.88
2022-12-18T07:08:48.438Z,42.88
2022-12-18T07:09:48.413Z,42.77
2022-12-18T07:10:52.832Z,42.77
2022-12-18T07:11:48.346Z,42.88
2022-12-18T07:12:48.306Z,42.77
2022-12-18T07:13:48.328Z,42.88
2022-12-18T07:14:48.254Z,42.77
2022-12-18T07:15:48.214Z,42.77
2022-12-18T07:16:48.308Z,42.77
2022-12-18T07:17:48.152Z,42.88
2022-12-18T07:18:48.102Z,42.77
2022-12-18T07:19:48.210Z,42.77
2022-12-18T07:20:48.052Z,42.77
2022-12-18T07:21:48.020Z,42.77
2022-12-18T07:22:52.070Z,42.77
2022-12-18T07:23:47.967Z,42.77
2022-12-18T07:24:47.924Z,42.68
2022-12-18T07:25:48.027Z,42.68
2022-12-18T07:26:47.866Z,42.77
2022-12-18T07:27:47.835Z,42.68
2022-12-18T07:28:47.809Z,42.68
2022-12-18T07:29:47.776Z,42.77
2022-12-18T07:30:47.748Z,42.77
2022-12-18T07:31:47.921Z,42.77
2022-12-18T07:32:47.671Z,42.77
2022-12-18T07:33:47.648Z,42.68
2022-12-18T07:34:47.613Z,42.68
2022-12-18T07:35:47.584Z,42.68
2022-12-18T07:36:47.544Z,42.68
2022-12-18T07:37:47.619Z,42.68
2022-12-18T07:38:47.475Z,42.68
2022-12-18T07:39:47.439Z,42.68
2022-12-18T07:40:47.399Z,42.68
2022-12-18T07:41:47.689Z,42.68
2022-12-18T07:42:47.336Z,42.77
2022-12-18T07:43:47.335Z,42.77
2022-12-18T07:44:47.263Z,42.77
2022-12-18T07:45:47.316Z,42.77
2022-12-18T07:46:47.192Z,42.77
2022-12-18T07:47:47.168Z,42.77
2022-12-18T07:48:49.488Z,42.68
2022-12-18T07:49:47.215Z,42.68
2022-12-18T07:50:47.070Z,42.77
2022-12-18T07:51:47.028Z,42.77
2022-12-18T07:52:46.993Z,42.77
2022-12-18T07:53:46.957Z,42.77
2022-12-18T07:54:46.928Z,42.77
2022-12-18T07:56:18.413Z,42.77
2022-12-18T07:56:46.864Z,42.77
2022-12-18T07:57:51.396Z,42.77
2022-12-18T07:58:46.794Z,42.77
2022-12-18T07:59:46.753Z,42.88
2022-12-18T08:00:46.722Z,41.07
2022-12-18T08:01:46.975Z,38.10
2022-12-18T08:02:46.808Z,38.02
2022-12-18T08:03:46.616Z,37.76
2022-12-18T08:04:46.590Z,37.37
2022-12-18T08:05:46.550Z,36.97
2022-12-18T08:06:48.254Z,36.69
2022-12-18T08:07:46.526Z,36.20
2022-12-18T08:08:46.460Z,35.80
2022-12-18T08:09:46.427Z,35.41
2022-12-18T08:10:46.401Z,35.11
2022-12-18T08:11:46.365Z,34.72
2022-12-18T08:12:46.341Z,34.22
2022-12-18T08:13:46.341Z,33.92
2022-12-18T08:14:46.281Z,33.51
2022-12-18T08:15:46.265Z,33.13
2022-12-18T08:16:46.270Z,32.83
2022-12-18T08:17:46.215Z,32.43
2022-12-18T08:18:46.198Z,32.14
2022-12-18T08:19:46.298Z,31.73
2022-12-18T08:20:46.149Z,31.45
2022-12-18T08:21:46.122Z,31.24
2022-12-18T08:22:46.110Z,30.94
2022-12-18T08:23:46.488Z,30.74
2022-12-18T08:24:46.069Z,30.44
2022-12-18T08:25:46.089Z,30.34
2022-12-18T08:27:06.735Z,30.24
2022-12-18T08:27:46.029Z,29.94
2022-12-18T08:28:46.006Z,29.82
2022-12-18T08:29:46.004Z,29.63
2022-12-18T08:30:46.052Z,29.42
2022-12-18T08:31:46.135Z,29.11
2022-12-18T08:32:45.953Z,29.02
2022-12-18T08:33:45.946Z,28.81
2022-12-18T08:34:45.936Z,28.71
2022-12-18T08:35:46.287Z,28.72
2022-12-18T08:36:45.922Z,28.52
2022-12-18T08:37:45.953Z,28.42
2022-12-18T08:38:45.898Z,28.32
2022-12-18T08:39:45.901Z,28.22
2022-12-18T08:40:45.895Z,28.12
2022-12-18T08:41:45.904Z,28.02
2022-12-18T08:42:45.889Z,27.92
2022-12-18T08:43:45.990Z,27.82
2022-12-18T08:44:45.878Z,27.82
2022-12-18T08:45:45.910Z,27.62
2022-12-18T08:46:45.862Z,27.62
2022-12-18T08:47:45.851Z,27.51
2022-12-18T08:48:45.847Z,27.42
2022-12-18T08:49:45.942Z,27.42
2022-12-18T08:50:45.826Z,27.42
2022-12-18T08:51:45.811Z,27.42
2022-12-18T08:52:45.799Z,27.22
2022-12-18T08:53:45.800Z,27.22
2022-12-18T08:54:45.791Z,27.22
2022-12-18T08:55:50.220Z,27.22
2022-12-18T08:56:45.771Z,27.11
2022-12-18T08:57:45.767Z,27.11
2022-12-18T08:58:45.797Z,27.22
2022-12-18T08:59:45.776Z,27.11
2022-12-18T09:00:45.765Z,27.11
2022-12-18T09:01:46.003Z,27.01
2022-12-18T09:02:45.920Z,27.01
2022-12-18T09:03:45.825Z,27.01
2022-12-18T09:04:46.921Z,26.91
2022-12-18T09:05:45.757Z,26.91
2022-12-18T09:06:45.752Z,26.91
2022-12-18T09:07:45.860Z,26.91
2022-12-18T09:08:45.753Z,26.92
2022-12-18T09:09:45.760Z,26.82
2022-12-18T09:10:45.747Z,26.92
2022-12-18T09:11:45.752Z,26.91
2022-12-18T09:12:45.760Z,26.81
2022-12-18T09:13:45.779Z,26.81
2022-12-18T09:14:45.756Z,26.81
2022-12-18T09:15:45.747Z,26.81
2022-12-18T09:16:45.835Z,26.81
2022-12-18T09:17:45.747Z,26.71
2022-12-18T09:18:45.764Z,26.81
2022-12-18T09:19:45.963Z,26.81
2022-12-18T09:20:45.756Z,26.81
2022-12-18T09:21:48.313Z,26.71
2022-12-18T09:22:45.752Z,26.71
2022-12-18T09:23:45.746Z,26.71
2022-12-18T09:24:45.744Z,26.71
2022-12-18T09:25:45.784Z,26.80
2022-12-18T09:26:47.020Z,26.70
2022-12-18T09:27:45.745Z,26.70
2022-12-18T09:28:45.762Z,26.70
2022-12-18T09:29:45.748Z,26.70
2022-12-18T09:30:45.842Z,26.70
2022-12-18T09:31:45.869Z,26.70
2022-12-18T09:32:45.740Z,26.70
2022-12-18T09:33:45.720Z,26.70
2022-12-18T09:34:45.732Z,26.70
2022-12-18T09:35:45.739Z,26.70
2022-12-18T09:36:45.740Z,26.70
2022-12-18T09:37:45.780Z,26.70
2022-12-18T09:38:45.728Z,26.80
2022-12-18T09:39:45.736Z,26.80
2022-12-18T09:40:45.720Z,26.80
2022-12-18T09:41:45.720Z,26.80
2022-12-18T09:42:45.704Z,26.80
2022-12-18T09:43:45.733Z,26.90
2022-12-18T09:44:46.008Z,27.00
2022-12-18T09:45:45.760Z,26.99
2022-12-18T09:46:45.767Z,26.99
2022-12-18T09:47:45.692Z,27.09
2022-12-18T09:48:45.684Z,27.09
2022-12-18T09:49:45.700Z,26.99
2022-12-18T09:50:45.672Z,27.08
2022-12-18T09:51:45.669Z,27.17
2022-12-18T09:52:45.654Z,27.17
2022-12-18T09:53:45.658Z,27.17
2022-12-18T09:54:45.649Z,27.17
2022-12-18T09:55:45.689Z,27.16
2022-12-18T09:56:45.641Z,27.06
2022-12-18T09:57:45.634Z,27.17
2022-12-18T09:58:45.637Z,27.17
2022-12-18T09:59:45.633Z,27.17
2022-12-18T10:00:45.621Z,27.08
2022-12-18T10:01:47.426Z,27.08
2022-12-18T10:02:45.734Z,27.08
2022-12-18T10:03:45.613Z,27.17
2022-12-18T10:04:45.690Z,27.08
2022-12-18T10:05:45.602Z,27.08
2022-12-18T10:06:45.589Z,26.97
2022-12-18T10:07:45.689Z,26.97
2022-12-18T10:08:45.575Z,26.97
2022-12-18T10:09:45.566Z,26.99
2022-12-18T10:10:45.566Z,26.99
2022-12-18T10:11:45.565Z,26.99
2022-12-18T10:12:45.550Z,27.09
2022-12-18T10:13:45.662Z,26.99
2022-12-18T10:14:45.537Z,27.09
2022-12-18T10:15:45.591Z,26.99
2022-12-18T10:16:45.514Z,27.08
2022-12-18T10:17:45.510Z,26.97
2022-12-18T10:18:45.494Z,26.97
2022-12-18T10:19:45.595Z,26.99
2022-12-18T10:20:45.479Z,26.97
2022-12-18T10:21:45.469Z,26.99
2022-12-18T10:22:45.449Z,26.99
2022-12-18T10:23:48.400Z,26.87
2022-12-18T10:24:45.434Z,26.99
2022-12-18T10:25:45.486Z,26.89
2022-12-18T10:26:45.415Z,26.99
2022-12-18T10:27:45.402Z,26.99
2022-12-18T10:28:45.485Z,26.99
2022-12-18T10:29:45.390Z,26.89
2022-12-18T10:30:45.479Z,26.99
2022-12-18T10:31:45.489Z,26.99
2022-12-18T10:32:45.355Z,27.09
2022-12-18T10:33:45.334Z,27.09
2022-12-18T10:34:45.331Z,27.09
2022-12-18T10:35:45.318Z,27.09
2022-12-18T10:36:45.319Z,26.99
2022-12-18T10:37:45.335Z,27.09
2022-12-18T10:38:45.304Z,27.09
2022-12-18T10:39:45.291Z,27.09
2022-12-18T10:40:45.279Z,27.09
2022-12-18T10:41:45.264Z,26.99
2022-12-18T10:42:45.259Z,27.09
2022-12-18T10:43:45.280Z,27.09
2022-12-18T10:44:45.228Z,26.99
2022-12-18T10:45:45.219Z,27.00
2022-12-18T10:46:45.294Z,27.00
2022-12-18T10:47:45.203Z,27.00
2022-12-18T10:48:45.200Z,27.10
2022-12-18T10:49:45.197Z,27.10
2022-12-18T10:51:10.306Z,27.10
2022-12-18T10:51:45.147Z,26.99
2022-12-18T10:52:45.355Z,27.19
2022-12-18T10:53:45.123Z,27.48
2022-12-18T10:54:45.115Z,27.98
2022-12-18T10:55:45.142Z,28.67
2022-12-18T10:56:45.086Z,28.96
2022-12-18T10:57:45.082Z,28.76
2022-12-18T10:58:45.644Z,28.85
2022-12-18T10:59:45.064Z,28.85
2022-12-18T11:00:45.064Z,28.85
2022-12-18T11:01:45.210Z,28.95
2022-12-18T11:02:45.252Z,29.03
2022-12-18T11:03:45.125Z,29.13
2022-12-18T11:04:45.008Z,29.13
2022-12-18T11:05:45.005Z,29.24
2022-12-18T11:06:45.021Z,29.24
2022-12-18T11:07:45.028Z,29.33
2022-12-18T11:08:45.155Z,29.44
2022-12-18T11:09:44.959Z,29.53
2022-12-18T11:10:44.953Z,29.63
2022-12-18T11:11:44.933Z,29.62
2022-12-18T11:12:44.916Z,29.72
2022-12-18T11:13:44.940Z,29.82
2022-12-18T11:14:47.073Z,29.82
2022-12-18T11:15:44.960Z,29.93
2022-12-18T11:17:03.205Z,30.02
2022-12-18T11:17:44.853Z,30.02
2022-12-18T11:18:44.821Z,30.12
2022-12-18T11:19:44.828Z,30.22
2022-12-18T11:20:44.792Z,30.22
2022-12-18T11:21:44.780Z,30.43
2022-12-18T11:22:44.786Z,30.43
2022-12-18T11:23:44.752Z,30.43
2022-12-18T11:24:57.348Z,30.52
2022-12-18T11:25:44.768Z,30.63
2022-12-18T11:26:44.712Z,30.63
2022-12-18T11:27:44.701Z,30.63
2022-12-18T11:28:45.273Z,30.73
2022-12-18T11:29:46.764Z,30.83
2022-12-18T11:30:44.650Z,30.83
2022-12-18T11:31:44.719Z,30.83
2022-12-18T11:32:44.629Z,30.93
2022-12-18T11:34:04.850Z,31.03
2022-12-18T11:34:44.589Z,31.03
2022-12-18T11:35:44.570Z,31.13
2022-12-18T11:36:44.561Z,31.13
2022-12-18T11:37:44.562Z,31.23
2022-12-18T11:38:44.821Z,31.33
2022-12-18T11:39:44.506Z,31.33
2022-12-18T11:40:44.490Z,31.33
2022-12-18T11:41:44.484Z,31.43
2022-12-18T11:42:44.461Z,31.53
2022-12-18T11:43:44.490Z,31.53
2022-12-18T11:44:44.449Z,31.63
2022-12-18T11:45:44.434Z,31.63
2022-12-18T11:46:44.481Z,31.73
2022-12-18T11:47:44.415Z,31.73
2022-12-18T11:48:44.418Z,31.83
2022-12-18T11:49:44.421Z,31.83
2022-12-18T11:50:44.366Z,31.93
2022-12-18T11:51:44.343Z,31.93
2022-12-18T11:52:44.329Z,32.03
2022-12-18T11:53:44.297Z,32.03
2022-12-18T11:54:44.290Z,32.14
2022-12-18T11:55:44.307Z,32.14
2022-12-18T11:56:44.246Z,32.23
2022-12-18T11:57:44.233Z,32.23
2022-12-18T11:58:44.624Z,32.33
2022-12-18T11:59:44.202Z,32.33
2022-12-18T12:00:44.186Z,32.43
2022-12-18T12:01:44.846Z,32.43
2022-12-18T12:02:44.333Z,32.43
2022-12-18T12:03:44.786Z,32.53
2022-12-18T12:04:44.116Z,32.53
2022-12-18T12:05:44.100Z,32.64
2022-12-18T12:06:44.090Z,32.64
2022-12-18T12:07:44.108Z,32.73
2022-12-18T12:08:44.054Z,32.73
2022-12-18T12:09:44.030Z,32.73
2022-12-18T12:10:44.015Z,32.84
2022-12-18T12:11:43.999Z,32.84
2022-12-18T12:12:48.332Z,32.93
2022-12-18T12:13:44.309Z,32.93
2022-12-18T12:14:43.980Z,32.93
2022-12-18T12:15:43.962Z,33.04
2022-12-18T12:16:44.003Z,33.04
2022-12-18T12:17:43.925Z,33.04
2022-12-18T12:18:43.902Z,33.14
2022-12-18T12:19:43.931Z,33.14
2022-12-18T12:20:43.875Z,33.14
2022-12-18T12:21:43.870Z,33.23
2022-12-18T12:22:43.847Z,33.23
2022-12-18T12:23:44.169Z,33.23
2022-12-18T12:24:43.804Z,33.34
2022-12-18T12:25:43.831Z,33.34
2022-12-18T12:26:43.770Z,33.34
2022-12-18T12:27:43.747Z,33.44
2022-12-18T12:28:44.002Z,33.44
2022-12-18T12:29:43.715Z,33.44
2022-12-18T12:30:43.700Z,33.54
2022-12-18T12:31:43.784Z,33.54
2022-12-18T12:32:43.655Z,33.54
2022-12-18T12:33:43.909Z,33.64
2022-12-18T12:34:43.624Z,33.65
2022-12-18T12:35:43.603Z,33.64
2022-12-18T12:36:43.592Z,33.74
2022-12-18T12:37:43.605Z,33.74
2022-12-18T12:38:46.988Z,33.74
2022-12-18T12:39:43.531Z,33.74
2022-12-18T12:40:56.684Z,33.84
2022-12-18T12:41:43.493Z,33.84
2022-12-18T12:42:43.461Z,33.94
2022-12-18T12:43:49.614Z,33.94
2022-12-18T12:44:43.437Z,33.94
2022-12-18T12:45:43.466Z,33.94
2022-12-18T12:46:43.402Z,34.04
2022-12-18T12:47:43.562Z,34.04
2022-12-18T12:48:43.778Z,34.06
2022-12-18T12:49:43.376Z,34.04
2022-12-18T12:50:43.320Z,34.16
2022-12-18T12:51:43.304Z,34.16
2022-12-18T12:52:43.290Z,34.16